createdAt,value
2023-03-29T00:01:07.904Z,26.10
2023-03-29T00:03:40.762Z,26.20
2023-03-29T00:06:13.425Z,26.30
2023-03-29T00:09:06.073Z,26.30
2023-03-29T00:11:37.815Z,26.40
2023-03-29T00:14:09.190Z,26.50
2023-03-29T00:16:40.447Z,26.50
2023-03-29T00:19:11.557Z,26.60
2023-03-29T00:21:42.721Z,26.70
2023-03-29T00:24:13.946Z,26.80
2023-03-29T00:26:45.602Z,26.80
2023-03-29T00:31:49.623Z,27.00
2023-03-29T00:34:20.921Z,26.90
2023-03-29T00:36:52.303Z,26.90
2023-03-29T00:39:24.029Z,26.90
2023-03-29T00:41:55.042Z,26.90
2023-03-29T00:45:03.214Z,26.80
2023-03-29T00:47:49.172Z,26.70
2023-03-29T00:50:27.224Z,26.80
2023-03-29T00:53:06.465Z,26.70
2023-03-29T00:55:40.079Z,26.80
2023-03-29T00:58:14.357Z,26.80
2023-03-29T01:00:56.596Z,26.90
2023-03-29T01:03:30.236Z,26.90
2023-03-29T01:06:04.051Z,26.90
2023-03-29T01:08:43.645Z,26.90
2023-03-29T01:11:19.825Z,27.00
2023-03-29T01:13:53.848Z,26.90
2023-03-29T01:16:26.955Z,26.90
2023-03-29T01:18:59.421Z,27.00
2023-03-29T01:21:36.263Z,27.00
2023-03-29T01:24:19.402Z,27.10
2023-03-29T01:27:07.737Z,27.10
2023-03-29T01:29:41.327Z,27.20
2023-03-29T01:32:20.592Z,27.20
2023-03-29T01:34:59.844Z,27.20
2023-03-29T01:37:37.648Z,27.30
2023-03-29T01:40:15.878Z,27.30
2023-03-29T01:42:55.401Z,27.30
2023-03-29T01:45:29.289Z,27.40
2023-03-29T01:48:19.203Z,27.50
2023-03-29T01:50:58.699Z,27.50
2023-03-29T01:53:38.274Z,27.60
2023-03-29T01:56:12.649Z,27.70
2023-03-29T01:58:46.252Z,27.70
2023-03-29T02:01:20.083Z,27.80
2023-03-29T02:03:55.323Z,27.90
2023-03-29T02:06:28.554Z,28.00
2023-03-29T02:08:59.833Z,28.10
2023-03-29T02:11:33.860Z,28.20
2023-03-29T02:14:12.193Z,28.40
2023-03-29T02:16:45.660Z,28.50
2023-03-29T02:19:18.329Z,28.60
2023-03-29T02:21:53.182Z,28.70
2023-03-29T02:24:26.232Z,28.80
2023-03-29T02:26:57.680Z,28.90
2023-03-29T02:29:34.123Z,28.90
2023-03-29T02:32:19.719Z,29.00
2023-03-29T02:34:53.362Z,29.10
2023-03-29T02:37:30.222Z,29.20
2023-03-29T02:40:01.331Z,29.30
2023-03-29T02:42:33.446Z,29.40
2023-03-29T02:45:05.018Z,29.50
2023-03-29T02:47:47.643Z,29.50
2023-03-29T02:50:18.798Z,29.50
2023-03-29T02:52:55.539Z,29.50
2023-03-29T02:55:26.864Z,29.40
2023-03-29T03:00:35.222Z,29.10
2023-03-29T03:03:07.830Z,28.90
2023-03-29T03:05:39.502Z,28.70
2023-03-29T03:08:10.830Z,28.60
2023-03-29T03:10:42.164Z,28.50
2023-03-29T03:13:12.907Z,28.50
2023-03-29T03:15:44.071Z,28.40
2023-03-29T03:18:15.782Z,28.50
2023-03-29T03:20:48.143Z,28.40
2023-03-29T03:23:19.328Z,28.50
2023-03-29T03:25:50.468Z,28.60
2023-03-29T03:28:21.826Z,28.60
2023-03-29T03:30:55.405Z,28.70
2023-03-29T03:33:31.761Z,28.80
2023-03-29T03:36:08.990Z,28.90
2023-03-29T03:38:41.035Z,28.90
2023-03-29T03:41:12.030Z,28.90
2023-03-29T03:43:44.628Z,28.90
2023-03-29T03:46:15.815Z,28.90
2023-03-29T03:48:48.127Z,28.80
2023-03-29T03:51:19.683Z,28.80
2023-03-29T03:53:50.839Z,28.70
2023-03-29T03:56:21.982Z,28.80
2023-03-29T03:58:53.000Z,28.90
2023-03-29T04:01:25.149Z,28.90
2023-03-29T04:03:56.373Z,28.90
2023-03-29T04:06:29.134Z,28.90
2023-03-29T04:09:00.960Z,28.90
2023-03-29T04:11:33.098Z,28.90
2023-03-29T04:14:04.119Z,28.90
2023-03-29T04:16:35.474Z,29.00
2023-03-29T04:19:06.509Z,29.00
2023-03-29T04:21:37.463Z,29.00
2023-03-29T04:24:09.404Z,29.10
2023-03-29T04:26:40.590Z,29.10
2023-03-29T04:29:12.088Z,29.10
2023-03-29T04:31:43.401Z,29.10
2023-03-29T04:34:14.509Z,29.10
2023-03-29T04:36:45.830Z,29.00
2023-03-29T04:39:18.708Z,29.10
2023-03-29T04:41:49.813Z,29.20
2023-03-29T04:44:21.136Z,29.40
2023-03-29T04:46:52.418Z,29.60
2023-03-29T04:49:25.918Z,29.70
2023-03-29T04:51:56.024Z,29.80
2023-03-29T04:54:35.446Z,29.90
2023-03-29T04:57:08.197Z,30.00
2023-03-29T04:59:39.886Z,30.20
2023-03-29T05:02:11.517Z,30.40
2023-03-29T05:04:44.506Z,30.50
2023-03-29T05:07:16.685Z,30.60
2023-03-29T05:09:48.419Z,30.70
2023-03-29T05:12:19.763Z,30.70
2023-03-29T05:14:50.893Z,30.80
2023-03-29T05:17:22.828Z,30.80
2023-03-29T05:19:53.927Z,30.80
2023-03-29T05:22:25.205Z,30.70
2023-03-29T05:24:56.429Z,30.70
2023-03-29T05:27:29.115Z,30.70
2023-03-29T05:30:03.317Z,30.70
2023-03-29T05:32:36.009Z,30.70
2023-03-29T05:35:08.170Z,30.60
2023-03-29T05:37:40.138Z,30.60
2023-03-29T05:40:12.164Z,30.60
2023-03-29T05:42:43.309Z,30.60
2023-03-29T05:45:14.636Z,30.70
2023-03-29T05:47:45.736Z,30.70
2023-03-29T05:50:16.730Z,30.90
2023-03-29T05:52:48.851Z,31.00
2023-03-29T05:55:20.076Z,31.20
2023-03-29T05:57:51.201Z,31.40
2023-03-29T06:00:26.873Z,31.50
2023-03-29T06:03:03.632Z,31.70
2023-03-29T06:05:30.983Z,31.80
2023-03-29T06:08:02.169Z,31.90
2023-03-29T06:10:38.057Z,31.80
2023-03-29T06:13:08.391Z,31.70
2023-03-29T06:15:39.391Z,31.50
2023-03-29T06:18:10.915Z,31.30
2023-03-29T06:20:41.916Z,31.20
2023-03-29T06:23:13.946Z,31.10
2023-03-29T06:25:46.335Z,31.00
2023-03-29T06:28:21.596Z,31.00
2023-03-29T06:30:56.788Z,31.00
2023-03-29T06:33:26.876Z,31.00
2023-03-29T06:35:58.154Z,31.00
2023-03-29T06:38:29.594Z,31.00
2023-03-29T06:41:08.053Z,31.00
2023-03-29T06:43:39.237Z,30.90
2023-03-29T06:46:12.048Z,30.90
2023-03-29T06:48:43.892Z,30.80
2023-03-29T06:51:14.909Z,30.80
2023-03-29T06:53:45.958Z,30.70
2023-03-29T06:56:17.164Z,30.70
2023-03-29T06:58:48.434Z,30.60
2023-03-29T07:01:19.829Z,30.60
2023-03-29T07:03:50.968Z,30.50
2023-03-29T07:06:23.460Z,30.50
2023-03-29T07:08:54.780Z,30.40
2023-03-29T07:11:26.268Z,30.40
2023-03-29T07:13:57.218Z,30.40
2023-03-29T07:16:28.473Z,30.30
2023-03-29T07:18:59.887Z,30.30
2023-03-29T07:21:31.246Z,30.20
2023-03-29T07:24:03.008Z,30.20
2023-03-29T07:26:34.074Z,30.10
2023-03-29T07:29:05.369Z,30.10
2023-03-29T07:31:37.015Z,30.10
2023-03-29T07:34:10.929Z,30.10
2023-03-29T07:36:43.845Z,30.10
2023-03-29T07:39:15.137Z,30.10
2023-03-29T07:41:47.485Z,30.00
2023-03-29T07:44:19.213Z,30.00
2023-03-29T07:46:50.664Z,30.00
2023-03-29T07:49:22.270Z,30.00
2023-03-29T07:51:53.428Z,30.00
2023-03-29T07:54:26.122Z,30.00
2023-03-29T07:56:57.526Z,30.00
2023-03-29T07:59:28.727Z,30.00
2023-03-29T08:01:59.905Z,30.00
2023-03-29T08:04:31.259Z,30.10
2023-03-29T08:07:03.086Z,30.10
2023-03-29T08:09:34.490Z,30.10
2023-03-29T08:12:05.462Z,30.20
2023-03-29T08:14:37.333Z,30.30
2023-03-29T08:17:10.423Z,30.40
2023-03-29T08:19:41.858Z,30.50
2023-03-29T08:22:14.359Z,30.60
2023-03-29T08:24:45.524Z,30.60
2023-03-29T08:27:17.093Z,30.70
2023-03-29T08:29:48.352Z,30.70
2023-03-29T08:32:19.551Z,30.80
2023-03-29T08:34:50.782Z,30.80
2023-03-29T08:37:21.722Z,30.80
2023-03-29T08:39:52.716Z,30.80
2023-03-29T08:42:43.083Z,30.80
2023-03-29T08:45:34.608Z,30.80
2023-03-29T08:48:08.491Z,30.80
2023-03-29T08:50:42.354Z,30.90
2023-03-29T08:53:19.001Z,30.90
2023-03-29T08:55:51.075Z,31.00
2023-03-29T08:58:26.883Z,31.00
2023-03-29T09:01:02.258Z,31.00
2023-03-29T09:03:54.172Z,31.00
2023-03-29T09:06:25.524Z,31.00
2023-03-29T09:08:57.557Z,31.00
2023-03-29T09:11:43.516Z,31.00
2023-03-29T09:14:41.159Z,31.00
2023-03-29T09:17:29.957Z,31.00
2023-03-29T09:20:09.601Z,30.90
2023-03-29T09:23:13.837Z,31.00
2023-03-29T09:26:05.208Z,31.00
2023-03-29T09:28:48.019Z,30.90
2023-03-29T09:31:27.345Z,30.90
2023-03-29T09:34:03.707Z,30.90
2023-03-29T09:36:45.648Z,30.90
2023-03-29T09:39:18.187Z,30.90
2023-03-29T09:42:08.471Z,31.00
2023-03-29T09:44:45.134Z,31.00
2023-03-29T09:47:37.578Z,31.00
2023-03-29T09:50:27.707Z,31.10
2023-03-29T09:52:50.496Z,31.10
2023-03-29T09:55:23.887Z,31.10
2023-03-29T09:57:55.411Z,31.10
2023-03-29T10:00:26.584Z,31.20
2023-03-29T10:03:00.102Z,31.10
2023-03-29T10:05:34.062Z,31.20
2023-03-29T10:08:06.490Z,31.10
2023-03-29T10:10:39.046Z,31.10
2023-03-29T10:13:12.748Z,31.10
2023-03-29T10:15:44.382Z,31.10
2023-03-29T10:18:17.994Z,31.00
2023-03-29T10:20:49.500Z,31.00
2023-03-29T10:23:21.856Z,31.00
2023-03-29T10:25:53.272Z,30.90
2023-03-29T10:28:25.809Z,30.90
2023-03-29T10:30:59.423Z,30.90
2023-03-29T10:33:33.052Z,30.90
2023-03-29T10:36:06.194Z,30.80
2023-03-29T10:38:39.324Z,30.80
2023-03-29T10:41:15.170Z,30.80
2023-03-29T10:43:57.918Z,30.80
2023-03-29T10:46:34.056Z,30.70
2023-03-29T10:49:08.818Z,30.60
2023-03-29T10:51:40.098Z,30.60
2023-03-29T10:54:13.797Z,30.50
2023-03-29T10:56:48.097Z,30.50
2023-03-29T10:59:33.828Z,30.40
2023-03-29T11:02:19.730Z,30.30
2023-03-29T11:04:54.769Z,30.30
2023-03-29T11:07:37.072Z,30.20
2023-03-29T11:10:27.316Z,30.20
2023-03-29T11:13:17.508Z,30.10
2023-03-29T11:15:53.812Z,30.10
2023-03-29T11:19:01.191Z,30.10
2023-03-29T11:21:38.031Z,30.00
2023-03-29T11:24:14.192Z,30.00
2023-03-29T11:27:16.495Z,29.90
2023-03-29T11:29:53.162Z,29.90
2023-03-29T11:32:33.602Z,29.80
2023-03-29T11:35:29.721Z,29.70
2023-03-29T11:38:21.308Z,29.70
2023-03-29T11:41:06.701Z,29.70
2023-03-29T11:43:40.503Z,29.70
2023-03-29T11:46:23.115Z,29.60
2023-03-29T11:48:56.744Z,29.60
2023-03-29T11:51:33.464Z,29.60
2023-03-29T11:54:24.772Z,29.60
2023-03-29T11:57:04.114Z,29.60
2023-03-29T11:59:54.457Z,29.50
2023-03-29T12:02:28.540Z,29.50
2023-03-29T12:05:02.502Z,29.50
2023-03-29T12:07:42.381Z,29.40
2023-03-29T12:10:27.918Z,29.40
2023-03-29T12:13:07.297Z,29.40
2023-03-29T12:15:50.454Z,29.30
2023-03-29T12:18:40.687Z,29.30
2023-03-29T12:21:23.386Z,29.30
2023-03-29T12:23:54.729Z,29.20
2023-03-29T12:26:41.316Z,29.20
2023-03-29T12:29:49.931Z,29.20
2023-03-29T12:32:39.830Z,29.10
2023-03-29T12:35:39.254Z,29.10
2023-03-29T12:38:21.934Z,29.10
2023-03-29T12:41:01.745Z,29.00
2023-03-29T12:43:41.179Z,29.00
2023-03-29T12:46:15.106Z,29.00
2023-03-29T12:48:49.084Z,29.00
2023-03-29T12:51:22.863Z,29.00
2023-03-29T12:53:56.259Z,28.90
2023-03-29T12:56:32.348Z,28.90
2023-03-29T12:59:12.187Z,28.90
2023-03-29T13:01:48.086Z,28.80
2023-03-29T13:10:12.368Z,28.80
2023-03-29T13:12:47.023Z,28.70
2023-03-29T13:15:21.177Z,28.70
2023-03-29T13:17:58.013Z,28.70
2023-03-29T13:20:40.395Z,28.70
2023-03-29T13:23:41.238Z,28.70
2023-03-29T13:26:37.150Z,28.60
2023-03-29T13:29:39.348Z,28.60
2023-03-29T13:32:21.827Z,28.60
2023-03-29T13:35:11.956Z,28.60
2023-03-29T13:37:52.524Z,28.60
2023-03-29T13:40:35.499Z,28.60
2023-03-29T13:43:25.099Z,28.60
2023-03-29T13:46:05.143Z,28.60
2023-03-29T13:48:38.887Z,28.50
2023-03-29T13:51:27.264Z,28.50
2023-03-29T13:54:03.445Z,28.50
2023-03-29T13:56:42.981Z,28.50
2023-03-29T13:59:20.052Z,28.50
2023-03-29T14:02:10.484Z,28.40
2023-03-29T14:04:48.377Z,28.40
2023-03-29T14:07:22.061Z,28.40
2023-03-29T14:09:55.638Z,28.40
2023-03-29T14:12:26.838Z,28.40
2023-03-29T14:15:02.333Z,28.40
2023-03-29T14:17:35.009Z,28.40
2023-03-29T14:20:08.966Z,28.40
2023-03-29T14:22:42.583Z,28.40
2023-03-29T14:25:22.403Z,28.40
2023-03-29T14:28:13.620Z,28.40
2023-03-29T14:30:48.171Z,28.40
2023-03-29T14:33:28.099Z,28.30
2023-03-29T14:36:00.647Z,28.30
2023-03-29T14:38:33.956Z,28.30
2023-03-29T14:41:06.123Z,28.30
2023-03-29T14:43:37.189Z,28.30
2023-03-29T14:46:09.843Z,28.30
2023-03-29T14:48:41.451Z,28.30
2023-03-29T14:51:13.248Z,28.30
2023-03-29T14:53:45.139Z,28.30
2023-03-29T14:56:19.476Z,28.30
2023-03-29T14:58:50.927Z,28.30
2023-03-29T15:01:24.877Z,28.30
2023-03-29T15:04:11.220Z,28.20
2023-03-29T15:06:46.391Z,28.20
2023-03-29T15:09:28.961Z,28.20
2023-03-29T15:12:02.077Z,28.20
2023-03-29T15:14:36.077Z,28.10
2023-03-29T15:17:10.108Z,28.10
2023-03-29T15:19:42.524Z,28.10
2023-03-29T15:22:19.229Z,28.10
2023-03-29T15:24:56.214Z,28.10
2023-03-29T15:27:27.298Z,28.20
2023-03-29T15:30:05.118Z,28.10
2023-03-29T15:33:06.684Z,28.10
2023-03-29T15:35:48.526Z,28.10
2023-03-29T15:39:03.596Z,28.10
2023-03-29T15:41:37.782Z,28.00
2023-03-29T15:44:10.337Z,28.00
2023-03-29T15:46:41.746Z,28.00
2023-03-29T15:49:17.153Z,28.00
2023-03-29T15:51:50.243Z,28.00
2023-03-29T15:54:33.010Z,28.00
2023-03-29T15:57:16.927Z,28.00
2023-03-29T15:59:48.156Z,28.00
2023-03-29T16:02:21.296Z,28.00
2023-03-29T16:04:54.650Z,28.00
2023-03-29T16:07:26.378Z,28.00
2023-03-29T16:10:00.539Z,28.00
2023-03-29T16:12:35.998Z,27.90
2023-03-29T16:15:16.686Z,27.90
2023-03-29T16:17:50.854Z,27.90
2023-03-29T16:20:23.680Z,27.80
2023-03-29T16:22:58.223Z,27.80
2023-03-29T16:25:29.802Z,27.80
2023-03-29T16:28:00.739Z,27.80
2023-03-29T16:30:32.641Z,27.70
2023-03-29T16:33:09.711Z,27.70
2023-03-29T16:35:42.114Z,27.70
2023-03-29T16:38:13.079Z,27.70
2023-03-29T16:40:45.884Z,27.70
2023-03-29T16:43:20.042Z,27.70
2023-03-29T16:45:52.181Z,27.60
2023-03-29T16:48:23.028Z,27.60
2023-03-29T16:50:54.202Z,27.60
2023-03-29T16:53:28.390Z,27.60
2023-03-29T16:55:58.010Z,27.60
2023-03-29T16:58:31.587Z,27.60
2023-03-29T17:01:27.747Z,27.60
2023-03-29T17:04:04.931Z,27.60
2023-03-29T17:06:37.256Z,27.60
2023-03-29T17:09:11.771Z,27.60
2023-03-29T17:11:43.476Z,27.60
2023-03-29T17:14:14.814Z,27.50
2023-03-29T17:16:45.715Z,27.50
2023-03-29T17:19:16.625Z,27.50
2023-03-29T17:21:47.598Z,27.50
2023-03-29T17:24:18.543Z,27.50
2023-03-29T17:26:49.680Z,27.50
2023-03-29T17:29:21.438Z,27.50
2023-03-29T17:31:52.812Z,27.50
2023-03-29T17:34:24.628Z,27.50
2023-03-29T17:36:55.587Z,27.50
2023-03-29T17:39:28.523Z,27.50
2023-03-29T17:42:04.112Z,27.40
2023-03-29T17:44:36.504Z,27.40
2023-03-29T17:47:07.815Z,27.40
2023-03-29T17:49:38.822Z,27.40
2023-03-29T17:52:12.217Z,27.40
2023-03-29T17:54:48.032Z,27.40
2023-03-29T17:57:19.341Z,27.40
2023-03-29T17:59:50.527Z,27.40
2023-03-29T18:02:23.887Z,27.30
2023-03-29T18:04:58.502Z,27.40
2023-03-29T18:07:29.611Z,27.40
2023-03-29T18:10:03.442Z,27.40
2023-03-29T18:12:35.972Z,27.40
2023-03-29T18:15:07.728Z,27.40
2023-03-29T18:17:41.718Z,27.40
2023-03-29T18:20:13.499Z,27.30
2023-03-29T18:25:18.392Z,27.20
2023-03-29T18:27:57.259Z,27.20
2023-03-29T18:30:28.220Z,27.20
2023-03-29T18:32:59.706Z,27.20
2023-03-29T18:35:30.987Z,27.10
2023-03-29T18:38:04.822Z,27.10
2023-03-29T18:40:37.048Z,27.10
2023-03-29T18:43:11.834Z,27.10
2023-03-29T18:45:44.784Z,27.10
2023-03-29T18:48:15.064Z,27.10
2023-03-29T18:50:52.565Z,27.10
2023-03-29T18:53:22.426Z,27.00
2023-03-29T18:55:53.480Z,27.00
2023-03-29T18:58:25.347Z,26.90
2023-03-29T19:00:58.243Z,26.90
2023-03-29T19:03:29.536Z,26.90
2023-03-29T19:06:00.856Z,26.80
2023-03-29T19:08:35.190Z,26.80
2023-03-29T19:11:09.984Z,26.80
2023-03-29T19:13:39.978Z,26.80
2023-03-29T19:16:11.980Z,26.80
2023-03-29T19:18:44.445Z,26.70
2023-03-29T19:21:16.139Z,26.70
2023-03-29T19:23:48.406Z,26.70
2023-03-29T19:26:19.746Z,26.70
2023-03-29T19:31:28.968Z,26.70
2023-03-29T19:34:05.069Z,26.80
2023-03-29T19:36:36.933Z,26.80
2023-03-29T19:39:16.022Z,26.90
2023-03-29T19:41:46.745Z,26.90
2023-03-29T19:44:17.694Z,26.90
2023-03-29T19:46:55.700Z,26.90
2023-03-29T19:49:26.976Z,26.90
2023-03-29T19:51:59.925Z,26.90
2023-03-29T19:54:31.871Z,26.90
2023-03-29T19:57:02.946Z,26.90
2023-03-29T19:59:34.258Z,27.00
2023-03-29T20:02:07.860Z,27.00
2023-03-29T20:04:39.269Z,26.90
2023-03-29T20:07:11.968Z,26.90
2023-03-29T20:09:45.216Z,26.90
2023-03-29T20:12:18.825Z,26.90
2023-03-29T20:14:53.168Z,26.90
2023-03-29T20:17:26.380Z,26.90
2023-03-29T20:19:56.955Z,26.90
2023-03-29T20:22:29.374Z,26.80
2023-03-29T20:25:01.459Z,26.80
2023-03-29T20:27:32.594Z,26.70
2023-03-29T20:30:04.497Z,26.70
2023-03-29T20:32:35.923Z,26.70
2023-03-29T20:35:14.037Z,26.60
2023-03-29T20:37:45.266Z,26.60
2023-03-29T20:40:18.446Z,26.60
2023-03-29T20:42:50.641Z,26.50
2023-03-29T20:45:22.899Z,26.60
2023-03-29T20:47:55.192Z,26.50
2023-03-29T20:50:32.128Z,26.50
2023-03-29T20:53:03.625Z,26.50
2023-03-29T20:55:35.374Z,26.40
2023-03-29T20:58:06.555Z,26.40
2023-03-29T21:00:41.397Z,26.40
2023-03-29T21:03:12.541Z,26.30
2023-03-29T21:05:44.666Z,26.30
2023-03-29T21:08:18.804Z,26.30
2023-03-29T21:10:50.152Z,26.30
2023-03-29T21:13:24.197Z,26.30
2023-03-29T21:15:55.316Z,26.20
2023-03-29T21:18:26.666Z,26.30
2023-03-29T21:20:57.665Z,26.20
2023-03-29T21:23:29.012Z,26.20
2023-03-29T21:26:00.198Z,26.20
2023-03-29T21:28:32.447Z,26.20
2023-03-29T21:31:11.183Z,26.20
2023-03-29T21:33:43.571Z,26.20
2023-03-29T21:36:16.648Z,26.20
2023-03-29T21:38:47.261Z,26.20
2023-03-29T21:41:21.730Z,26.20
2023-03-29T21:43:53.644Z,26.20
2023-03-29T21:46:30.507Z,26.20
2023-03-29T21:49:04.542Z,26.20
2023-03-29T21:51:35.771Z,26.20
2023-03-29T21:54:45.148Z,26.10
2023-03-29T21:57:15.721Z,26.20
2023-03-29T21:59:49.045Z,26.20
2023-03-29T22:02:19.994Z,26.20
2023-03-29T22:04:51.424Z,26.20
2023-03-29T22:07:26.298Z,26.20
2023-03-29T22:10:00.007Z,26.20
2023-03-29T22:12:35.802Z,26.20
2023-03-29T22:15:08.480Z,26.20
2023-03-29T22:17:46.040Z,26.20
2023-03-29T22:20:15.896Z,26.20
2023-03-29T22:22:50.905Z,26.20
2023-03-29T22:25:22.390Z,26.20
2023-03-29T22:27:53.779Z,26.20
2023-03-29T22:30:25.117Z,26.10
2023-03-29T22:32:56.509Z,26.10
2023-03-29T22:35:27.369Z,26.10
2023-03-29T22:37:58.201Z,26.10
2023-03-29T22:40:29.456Z,26.10
2023-03-29T22:43:02.642Z,26.10
2023-03-29T22:45:33.010Z,26.10
2023-03-29T22:48:10.260Z,26.10
2023-03-29T22:50:42.804Z,26.10
2023-03-29T22:53:13.822Z,26.10
2023-03-29T22:55:46.522Z,26.10
2023-03-29T22:58:20.496Z,26.20
2023-03-29T23:00:52.227Z,26.20
2023-03-29T23:03:26.647Z,26.10
2023-03-29T23:06:00.059Z,26.20
2023-03-29T23:08:33.370Z,26.20
2023-03-29T23:11:09.340Z,26.20
2023-03-29T23:13:39.810Z,26.20
2023-03-29T23:16:11.121Z,26.20
2023-03-29T23:18:44.940Z,26.20
2023-03-29T23:21:16.629Z,26.20
2023-03-29T23:23:47.727Z,26.20
2023-03-29T23:26:19.512Z,26.20
2023-03-29T23:28:55.460Z,26.20
2023-03-29T23:31:30.504Z,26.20
2023-03-29T23:34:04.576Z,26.20
2023-03-29T23:36:35.455Z,26.20
2023-03-29T23:39:07.871Z,26.20
2023-03-29T23:41:43.003Z,26.20
2023-03-29T23:44:15.161Z,26.10
2023-03-29T23:46:46.303Z,26.20
2023-03-29T23:49:18.577Z,26.20
2023-03-29T23:51:49.692Z,26.20
2023-03-29T23:54:20.841Z,26.10
2023-03-29T23:56:52.063Z,26.20
2023-03-29T23:59:29.108Z,26.20
